Time;durP1;ratioP1;P1;durP2;ratioP2;P2;SDS_P1;SDS_P2;PMS_P1;PMS_P2;Temp;Humidity;BMP_temperature;BMP_pressure;BME280_temperature;BME280_humidity;BME280_pressure;Samples;Min_cycle;Max_cycle;Signal;HPM_P1;HPM_P2
2024/01/23 07:35:04;;;;;;;3.60;0.80;;;6.30;99.90;7.60;102226.00;;;;6306323;22;20522;-67
2024/01/23 07:37:35;;;;;;;6.07;1.57;;;6.20;99.90;7.80;102231.00;;;;6224181;22;1393414;-69
2024/01/23 07:40:01;;;;;;;0.73;0.73;;;6.10;99.90;7.70;102201.00;;;;6276634;22;20166;-69
2024/01/23 07:42:30;;;;;;;0.97;0.80;;;6.10;99.90;7.70;102238.00;;;;6276384;22;20150;-68
2024/01/23 07:44:56;;;;;;;2.93;0.80;;;6.20;99.90;7.50;102234.00;;;;6275230;22;20468;-68
2024/01/23 07:47:22;;;;;;;0.70;0.70;;;6.10;99.90;8.30;102253.00;;;;6277870;22;20550;-70
2024/01/23 07:49:53;;;;;;;0.70;0.70;;;6.40;99.90;8.00;102232.00;;;;6276384;22;20162;-67
2024/01/23 07:52:21;;;;;;;1.80;0.87;;;6.20;99.90;7.80;102255.00;;;;6250718;22;20185;-67
2024/01/23 07:54:50;;;;;;;1.07;0.50;;;6.10;99.90;7.70;102250.00;;;;6276669;22;20139;-67
2024/01/23 07:57:16;;;;;;;0.30;0.30;;;6.10;99.90;7.60;102239.00;;;;6276707;22;20228;-68
2024/01/23 07:59:42;;;;;;;3.07;2.10;;;6.10;99.90;7.40;102258.00;;;;6276182;22;20169;-68
2024/01/23 08:02:10;;;;;;;1.23;1.13;;;6.00;99.90;7.60;102242.00;;;;6276128;22;20205;-68
2024/01/23 08:04:37;;;;;;;8.47;1.47;;;6.10;99.90;8.30;102250.00;;;;6276187;22;20208;-69
2024/01/23 08:07:06;;;;;;;1.33;1.23;;;6.30;99.90;7.90;102243.00;;;;6275628;22;20289;-69
2024/01/23 08:09:32;;;;;;;0.30;0.30;;;6.30;99.90;9.20;102243.00;;;;6275404;22;20207;-69
2024/01/23 08:11:58;;;;;;;0.30;0.30;;;6.70;99.90;8.40;102262.00;;;;6275797;22;20188;-69
2024/01/23 08:14:24;;;;;;;0.30;0.30;;;6.50;99.90;9.90;102282.00;;;;6277456;22;20141;-70
2024/01/23 08:16:50;;;;;;;0.30;0.30;;;6.90;99.90;10.20;102295.00;;;;6275692;22;20236;-69
2024/01/23 08:19:19;;;;;;;0.30;0.30;;;7.30;99.90;10.20;102307.00;;;;6277971;22;20141;-69
2024/01/23 08:21:49;;;;;;;0.30;0.30;;;7.40;99.90;10.30;102273.00;;;;6276201;22;20138;-69
2024/01/23 08:24:18;;;;;;;0.40;0.40;;;7.40;99.90;10.30;102330.00;;;;6276470;22;20142;-69
2024/01/23 08:26:47;;;;;;;0.40;0.40;;;7.40;99.90;10.30;102327.00;;;;6277145;22;20467;-69
2024/01/23 08:29:13;;;;;;;0.60;0.60;;;7.60;99.90;10.60;102331.00;;;;6275386;22;20141;-70
2024/01/23 08:31:39;;;;;;;0.30;0.30;;;7.70;99.90;8.70;102323.00;;;;6277451;22;20134;-69
2024/01/23 08:34:08;;;;;;;0.57;0.57;;;7.20;99.90;8.80;102310.00;;;;6277391;22;20164;-69
2024/01/23 08:36:34;;;;;;;3.40;0.77;;;6.90;99.90;8.70;102323.00;;;;6277051;22;20245;-69
2024/01/23 08:39:00;;;;;;;0.87;0.87;;;6.90;99.90;8.20;102313.00;;;;6250222;22;20191;-69
2024/01/23 08:41:27;;;;;;;10.70;2.10;;;6.60;99.90;8.30;102312.00;;;;6276170;22;20141;-69
2024/01/23 08:43:53;;;;;;;0.30;0.30;;;6.60;99.90;8.40;102312.00;;;;6275667;22;20453;-70
2024/01/23 08:46:18;;;;;;;0.30;0.30;;;6.60;99.90;9.40;102322.00;;;;6275896;22;20152;-70
2024/01/23 08:48:44;;;;;;;0.30;0.30;;;6.90;99.90;9.90;102322.00;;;;6276075;22;20172;-69
2024/01/23 08:51:11;;;;;;;0.30;0.30;;;7.10;99.90;10.00;102341.00;;;;6275790;22;20633;-70
2024/01/23 08:53:45;;;;;;;0.47;0.47;;;7.20;99.90;9.90;102343.00;;;;6275816;22;20661;-68
2024/01/23 08:56:17;;;;;;;0.30;0.30;;;7.30;99.90;10.10;102339.00;;;;6275725;22;20164;-68
2024/01/23 08:58:43;;;;;;;0.30;0.30;;;7.40;99.90;10.00;102347.00;;;;6275688;22;20141;-68
2024/01/23 09:01:09;;;;;;;0.30;0.30;;;7.50;99.90;10.30;102346.00;;;;6275127;22;20275;-67
2024/01/23 09:03:47;;;;;;;0.30;0.30;;;7.60;99.90;9.90;102338.00;;;;6275965;22;20164;-68
2024/01/23 09:06:14;;;;;;;0.33;0.33;;;7.60;99.90;11.00;102346.00;;;;6273766;22;20144;-68
2024/01/23 09:08:46;;;;;;;0.30;0.30;;;8.10;99.90;9.40;102314.00;;;;6274760;22;20737;-68
2024/01/23 09:11:12;;;;;;;6.90;1.07;;;7.60;99.90;10.20;102331.00;;;;6277144;22;20199;-68
2024/01/23 09:13:38;;;;;;;0.30;0.30;;;7.80;99.90;9.80;102302.00;;;;6249970;22;20574;-68
2024/01/23 09:16:05;;;;;;;0.53;0.53;;;7.70;99.90;9.00;102247.00;;;;6273828;22;20648;-68
2024/01/23 09:18:33;;;;;;;0.30;0.30;;;7.40;99.90;9.80;102307.00;;;;6276021;22;20585;-68
2024/01/23 09:21:02;;;;;;;0.30;0.30;;;7.40;99.90;10.80;102267.00;;;;6276081;22;20191;-68
2024/01/23 09:23:32;;;;;;;0.30;0.30;;;7.80;99.90;10.60;102323.00;;;;6273510;22;20194;-68
2024/01/23 09:25:58;;;;;;;0.30;0.30;;;8.00;99.90;10.80;102333.00;;;;6274887;22;20139;-68
2024/01/23 09:28:24;;;;;;;1.13;1.07;;;8.20;99.90;10.80;102320.00;;;;6277092;22;20145;-68
2024/01/23 09:30:50;;;;;;;0.30;0.30;;;8.20;99.90;10.50;102320.00;;;;6277008;22;20177;-68
2024/01/23 09:33:19;;;;;;;0.63;0.63;;;8.20;99.90;11.10;102316.00;;;;6275390;22;20190;-68
2024/01/23 09:35:45;;;;;;;1.17;0.43;;;8.30;99.90;10.80;102314.00;;;;6275509;22;20573;-68
2024/01/23 09:38:11;;;;;;;0.20;0.20;;;8.40;99.90;11.50;102325.00;;;;6275339;22;20175;-68
2024/01/23 09:40:36;;;;;;;0.20;0.20;;;8.70;99.90;12.10;102331.00;;;;6275496;22;20159;-68
2024/01/23 09:43:03;;;;;;;2.93;1.37;;;9.20;99.90;12.00;102332.00;;;;6275317;22;20595;-68
2024/01/23 09:45:29;;;;;;;3.93;0.77;;;9.50;99.90;10.80;102299.00;;;;6275222;22;20518;-68
2024/01/23 09:47:55;;;;;;;0.20;0.20;;;9.10;99.90;11.60;102306.00;;;;6275662;22;20228;-68
2024/01/23 09:50:26;;;;;;;0.70;0.70;;;9.10;99.90;11.00;102294.00;;;;6275273;22;20191;-68
2024/01/23 09:52:52;;;;;;;3.37;2.73;;;9.00;99.90;10.40;102289.00;;;;6274982;22;20264;-68
2024/01/23 09:55:19;;;;;;;0.40;0.30;;;8.70;99.90;10.30;102288.00;;;;6274405;22;20145;-68
2024/01/23 09:57:48;;;;;;;0.30;0.30;;;8.80;99.90;11.20;102287.00;;;;6277205;22;20145;-68
2024/01/23 10:00:14;;;;;;;0.90;0.90;;;8.90;99.90;11.80;102294.00;;;;6274960;22;20239;-68
2024/01/23 10:02:44;;;;;;;0.77;0.77;;;9.10;99.90;12.90;102310.00;;;;6277445;22;20256;-68
2024/01/23 10:05:17;;;;;;;0.20;0.20;;;9.60;99.90;12.70;102309.00;;;;6274770;22;20163;-68
2024/01/23 10:07:44;;;;;;;0.70;0.70;;;9.80;99.90;12.60;102317.00;;;;6275592;22;20152;-68
2024/01/23 10:10:14;;;;;;;2.90;0.57;;;9.80;99.90;12.40;102315.00;;;;6274564;22;20627;-68
2024/01/23 10:12:48;;;;;;;0.23;0.23;;;10.00;99.90;11.60;102300.00;;;;6275314;22;20165;-68
2024/01/23 10:15:18;;;;;;;0.33;0.33;;;9.50;99.90;12.00;102306.00;;;;6275110;22;20153;-68
2024/01/23 10:17:45;;;;;;;0.20;0.20;;;9.70;99.90;13.30;102312.00;;;;6275224;22;20160;-68
2024/01/23 10:20:12;;;;;;;0.23;0.23;;;10.10;99.90;13.70;102336.00;;;;6275268;22;20144;-68
2024/01/23 10:33:27;;;;;;;0.20;0.20;;;8.90;99.90;11.30;102284.00;;;;5081677;28;21093;-68
2024/01/23 10:36:01;;;;;;;4.87;0.97;;;9.20;99.90;11.40;102293.00;;;;5050711;28;20569;-68
2024/01/23 10:38:32;;;;;;;0.43;0.40;;;9.30;99.90;12.20;102293.00;;;;5067239;28;20176;-69
2024/01/23 10:41:02;;;;;;;0.20;0.20;;;9.70;99.90;12.70;102341.00;;;;5069119;28;20197;-68
2024/01/23 10:43:39;;;;;;;1.13;1.13;;;10.00;99.90;13.40;102368.00;;;;5070325;28;20204;-68
2024/01/23 10:46:08;;;;;;;2.63;1.73;;;10.50;99.90;13.50;102348.00;;;;5064461;28;20204;-69
2024/01/23 10:48:49;;;;;;;1.53;0.77;;;10.70;99.90;11.50;102313.00;;;;5067779;28;20203;-68
2024/01/23 10:51:23;;;;;;;0.80;0.80;;;10.40;99.90;13.10;102318.00;;;;5068542;28;20177;-68
2024/01/23 10:54:09;;;;;;;1.13;0.97;;;10.40;99.90;11.80;102309.00;;;;5068535;28;20651;-68
2024/01/23 10:57:04;;;;;;;0.70;0.70;;;10.10;99.90;12.80;102324.00;;;;5068613;28;20267;-68
2024/01/23 10:59:34;;;;;;;0.67;0.67;;;10.30;99.90;13.20;102319.00;;;;5067749;28;20202;-69
2024/01/23 11:02:05;;;;;;;0.20;0.20;;;10.60;99.90;12.40;102299.00;;;;5069749;28;20197;-69
2024/01/23 11:04:32;;;;;;;0.40;0.40;;;10.30;99.90;12.30;102252.00;;;;5083405;28;20185;-68
2024/01/23 11:07:29;;;;;;;2.93;2.03;;;10.00;99.90;12.00;102282.00;;;;5060361;28;20260;-69
2024/01/23 11:10:15;;;;;;;0.77;0.60;;;9.90;99.90;12.00;102248.00;;;;5069647;28;20228;-68
2024/01/23 11:13:29;;;;;;;0.30;0.30;;;9.90;99.90;12.40;102288.00;;;;5057951;28;20585;-69
2024/01/23 11:15:58;;;;;;;0.63;0.63;;;10.00;99.90;11.80;102279.00;;;;5063899;28;20202;-68
2024/01/23 11:18:29;;;;;;;0.57;0.53;;;10.00;99.90;11.80;102256.00;;;;5065778;28;20192;-68
2024/01/23 11:21:24;;;;;;;0.30;0.30;;;9.80;99.90;13.00;102250.00;;;;5067780;28;20590;-68
2024/01/23 11:24:00;;;;;;;0.80;0.80;;;10.20;99.90;12.30;102237.00;;;;5060918;28;20224;-69
2024/01/23 11:26:30;;;;;;;1.57;1.47;;;10.30;99.90;11.80;102204.00;;;;5062864;28;20189;-68
2024/01/23 11:29:04;;;;;;;1.07;1.03;;;10.00;99.90;11.90;102206.00;;;;5067795;28;20625;-69
2024/01/23 11:31:42;;;;;;;11.97;0.63;;;10.10;99.90;12.50;102209.00;;;;5058008;28;20793;-69
2024/01/23 11:34:24;;;;;;;0.20;0.20;;;10.30;99.90;11.60;102196.00;;;;5067736;28;20186;-69
2024/01/23 11:36:50;;;;;;;0.47;0.47;;;10.00;99.90;11.50;102182.00;;;;5067464;28;20184;-69
2024/01/23 11:39:25;;;;;;;0.87;0.67;;;10.00;99.90;12.20;102193.00;;;;5063199;28;20199;-69
2024/01/23 11:41:55;;;;;;;2.67;0.93;;;10.10;99.90;11.40;102186.00;;;;5063876;28;20188;-69
2024/01/23 11:44:21;;;;;;;8.70;1.50;;;10.00;99.90;11.20;102148.00;;;;5057048;28;20250;-68
2024/01/23 11:46:55;;;;;;;0.93;0.70;;;9.80;99.90;11.40;102168.00;;;;5054258;28;20651;-68
2024/01/23 11:49:21;;;;;;;0.27;0.27;;;9.70;99.90;12.90;102177.00;;;;5053498;28;20645;-68
2024/01/23 11:51:53;;;;;;;2.07;1.90;;;10.20;99.90;12.60;102182.00;;;;5053813;28;20203;-68
2024/01/23 11:54:19;;;;;;;5.10;0.87;;;10.50;99.90;10.90;102101.00;;;;5054390;28;20650;-68
2024/01/23 11:56:45;;;;;;;0.73;0.73;;;9.90;99.90;11.10;102132.00;;;;5059800;28;20219;-68
2024/01/23 11:59:12;;;;;;;3.70;1.80;;;9.70;99.90;10.70;102136.00;;;;5054062;28;20263;-68
2024/01/23 12:01:40;;;;;;;9.63;1.67;;;9.60;99.90;11.20;102139.00;;;;5053142;28;20198;-68
2024/01/23 12:04:07;;;;;;;0.73;0.73;;;9.60;99.90;11.50;102121.00;;;;5052981;28;20184;-67
2024/01/23 12:06:33;;;;;;;1.03;0.93;;;9.80;99.90;11.90;102116.00;;;;5038451;28;20247;-69
2024/01/23 12:08:59;;;;;;;4.67;1.03;;;10.00;99.90;11.50;102110.00;;;;5054267;28;20244;-68
2024/01/23 12:11:25;;;;;;;2.57;0.50;;;10.00;99.90;11.90;102106.00;;;;5046660;28;20210;-68
2024/01/23 12:13:51;;;;;;;16.10;3.83;;;10.20;99.90;10.90;102090.00;;;;5047388;28;20188;-68
2024/01/23 12:16:18;;;;;;;2.27;0.63;;;9.80;99.90;11.00;102088.00;;;;5049689;28;20238;-68
2024/01/23 12:19:00;;;;;;;1.60;1.50;;;9.70;99.90;11.80;102092.00;;;;5051792;28;20186;-68
2024/01/23 12:21:31;;;;;;;2.53;1.50;;;9.80;99.90;12.10;102111.00;;;;5053010;28;20263;-68
2024/01/23 12:23:58;;;;;;;8.40;3.40;;;10.10;99.90;11.00;102079.00;;;;5041406;28;20186;-68
2024/01/23 12:26:23;;;;;;;2.80;0.80;;;9.90;99.90;11.30;102099.00;;;;5050848;28;20187;-68
2024/01/23 12:28:50;;;;;;;0.57;0.57;;;9.80;99.90;11.90;102092.00;;;;5043680;28;20195;-68
2024/01/23 12:31:17;;;;;;;6.23;0.50;;;10.00;99.90;11.80;102103.00;;;;5047424;28;20248;-68
2024/01/23 12:33:43;;;;;;;0.30;0.30;;;10.00;99.90;11.50;102089.00;;;;5046808;28;20279;-68
2024/01/23 12:36:16;;;;;;;1.90;0.70;;;9.90;99.90;11.50;102050.00;;;;5046950;28;20636;-68
2024/01/23 12:38:42;;;;;;;0.63;0.60;;;9.80;99.90;11.90;102084.00;;;;5049032;28;20190;-68
2024/01/23 12:41:11;;;;;;;0.20;0.20;;;10.00;99.90;13.00;102094.00;;;;5046434;28;20200;-68
2024/01/23 12:43:37;;;;;;;0.30;0.30;;;10.30;99.90;13.50;102108.00;;;;5047623;28;20663;-68
2024/01/23 12:46:06;;;;;;;0.30;0.30;;;10.70;99.90;12.40;102112.00;;;;5048239;28;20186;-68
2024/01/23 12:48:32;;;;;;;6.60;2.63;;;10.60;99.90;12.30;102085.00;;;;5058125;28;20198;-68
2024/01/23 12:50:58;;;;;;;0.23;0.23;;;10.30;99.90;13.00;102103.00;;;;5045310;28;20237;-68
2024/01/23 12:53:29;;;;;;;0.90;0.87;;;10.60;99.90;11.90;102084.00;;;;5046194;28;20211;-68
2024/01/23 12:55:55;;;;;;;1.00;0.93;;;10.20;99.90;12.10;102064.00;;;;5040962;28;20183;-68
2024/01/23 12:58:24;;;;;;;6.63;0.60;;;10.10;99.90;11.50;102044.00;;;;5036092;28;20184;-67
2024/01/23 13:00:51;;;;;;;2.97;2.77;;;10.00;99.90;11.60;102057.00;;;;5060725;28;20212;-68
2024/01/23 13:03:18;;;;;;;1.57;1.47;;;10.00;99.90;11.40;102048.00;;;;5058836;28;20657;-68
2024/01/23 13:05:44;;;;;;;0.30;0.30;;;9.90;99.90;11.70;102014.00;;;;5044875;28;20186;-68
2024/01/23 13:08:10;;;;;;;0.53;0.53;;;9.90;99.90;11.80;102042.00;;;;5050021;28;20184;-68
2024/01/23 13:10:45;;;;;;;5.93;1.23;;;10.00;99.90;11.10;102038.00;;;;5053126;28;20266;-68
2024/01/23 13:13:11;;;;;;;0.40;0.40;;;9.80;99.90;11.40;101988.00;;;;5050294;28;20198;-68
2024/01/23 13:15:39;;;;;;;0.30;0.30;;;9.80;99.90;11.60;102025.00;;;;5052800;28;20216;-68
2024/01/23 13:18:05;;;;;;;2.53;0.63;;;9.80;99.90;11.80;101972.00;;;;5053552;28;20364;-68
2024/01/23 13:20:31;;;;;;;2.93;1.13;;;9.90;99.90;11.50;102008.00;;;;5039380;28;20299;-68
2024/01/23 13:22:57;;;;;;;0.40;0.40;;;9.90;99.90;11.90;102007.00;;;;5054002;28;20189;-68
2024/01/23 13:25:24;;;;;;;1.60;1.27;;;10.00;99.90;12.20;102001.00;;;;5051465;28;20186;-68
2024/01/23 13:27:52;;;;;;;0.90;0.90;;;10.10;99.90;11.20;101989.00;;;;5053549;28;20316;-68
2024/01/23 13:30:18;;;;;;;0.53;0.47;;;9.90;99.90;11.00;101983.00;;;;5052280;28;20187;-67
2024/01/23 13:32:53;;;;;;;1.07;0.40;;;9.70;99.90;11.80;102001.00;;;;5035421;28;20560;-68
2024/01/23 13:35:20;;;;;;;0.30;0.30;;;9.80;99.90;11.40;101986.00;;;;5052391;28;20514;-68
2024/01/23 13:37:46;;;;;;;0.57;0.57;;;9.80;99.90;11.30;101988.00;;;;5052567;28;20185;-68
2024/01/23 13:40:12;;;;;;;1.33;1.23;;;9.70;99.90;10.90;101978.00;;;;5035478;28;20235;-68
2024/01/23 13:42:42;;;;;;;1.83;1.13;;;9.50;99.90;11.10;101976.00;;;;5052099;28;20306;-68
2024/01/23 13:45:09;;;;;;;2.10;2.00;;;9.60;99.90;11.30;101968.00;;;;5049017;28;20237;-67
2024/01/23 13:47:43;;;;;;;1.60;0.40;;;9.60;99.90;10.90;101969.00;;;;5043483;28;20193;-68
2024/01/23 13:50:10;;;;;;;4.00;1.13;;;9.50;99.90;10.90;101961.00;;;;5038165;28;20191;-67
2024/01/23 13:52:36;;;;;;;0.40;0.40;;;9.50;99.90;11.00;101963.00;;;;5034680;28;20210;-68
2024/01/23 13:55:06;;;;;;;1.40;1.00;;;9.40;99.90;10.60;101960.00;;;;5035496;28;20179;-67
2024/01/23 13:57:32;;;;;;;0.70;0.70;;;9.30;99.90;10.50;101914.00;;;;5033217;28;20268;-68
2024/01/23 14:00:05;;;;;;;0.40;0.40;;;9.30;99.90;11.30;101948.00;;;;5045075;28;20222;-68
2024/01/23 14:02:31;;;;;;;2.93;0.60;;;9.40;99.90;10.90;101950.00;;;;5048318;28;20201;-68
2024/01/23 14:04:59;;;;;;;4.37;1.73;;;9.40;99.90;10.90;101903.00;;;;5035507;28;20183;-68
2024/01/23 14:07:26;;;;;;;1.90;1.53;;;9.30;99.90;10.50;101929.00;;;;5039535;28;20221;-68
2024/01/23 14:09:54;;;;;;;3.50;0.77;;;9.20;99.90;11.10;101913.00;;;;5030940;28;20278;-68
2024/01/23 14:12:21;;;;;;;1.07;0.70;;;9.30;99.90;11.10;101915.00;;;;5048516;28;20214;-68
2024/01/23 14:14:47;;;;;;;0.57;0.47;;;9.30;99.90;11.00;101899.00;;;;5069571;28;20181;-70
2024/01/23 14:17:15;;;;;;;3.23;0.50;;;9.30;99.90;10.60;101856.00;;;;5055015;28;20663;-69
2024/01/23 14:19:41;;;;;;;1.47;1.37;;;9.20;99.90;10.30;101884.00;;;;5051413;28;20179;-70
2024/01/23 14:22:13;;;;;;;6.80;2.03;;;9.10;99.90;10.90;101903.00;;;;5034284;28;20195;-69
2024/01/23 14:24:39;;;;;;;1.67;1.57;;;9.20;99.90;10.60;101899.00;;;;5052040;28;20186;-69
2024/01/23 14:27:10;;;;;;;2.90;1.17;;;9.10;99.90;10.50;101892.00;;;;5046887;28;20190;-70
2024/01/23 14:29:36;;;;;;;0.47;0.47;;;9.10;99.90;10.80;101835.00;;;;5044233;28;20193;-70
2024/01/23 14:32:03;;;;;;;0.30;0.30;;;9.10;99.90;10.60;101856.00;;;;5052658;28;20217;-70
2024/01/23 14:34:29;;;;;;;5.00;1.50;;;9.10;99.90;10.60;101870.00;;;;5035048;28;20227;-70
2024/01/23 14:36:55;;;;;;;0.40;0.40;;;9.10;99.90;10.60;101856.00;;;;5051625;28;20291;-70
2024/01/23 14:39:21;;;;;;;1.20;0.57;;;9.10;99.90;10.90;101835.00;;;;5038815;28;20190;-70
2024/01/23 14:41:52;;;;;;;12.30;2.63;;;9.10;99.90;10.90;101793.00;;;;5050304;28;20659;-70
2024/01/23 14:44:18;;;;;;;0.93;0.93;;;9.20;99.90;10.50;101832.00;;;;5052637;28;20535;-70
2024/01/23 14:46:44;;;;;;;3.53;1.10;;;9.10;99.90;10.20;101826.00;;;;5051407;28;20261;-70
2024/01/23 14:49:09;;;;;;;0.97;0.97;;;8.90;99.90;10.50;101824.00;;;;5044809;28;20215;-69
2024/01/23 14:51:38;;;;;;;3.57;1.50;;;8.90;99.90;10.30;101815.00;;;;5041972;28;20555;-69
2024/01/23 14:54:07;;;;;;;1.67;1.57;;;9.00;99.90;10.40;101791.00;;;;5034016;28;20197;-69
2024/01/23 14:56:33;;;;;;;4.70;0.80;;;9.00;99.90;10.60;101800.00;;;;5040671;28;20270;-69
2024/01/23 14:58:59;;;;;;;4.13;2.20;;;9.00;99.90;10.60;101791.00;;;;5050981;28;20284;-69
2024/01/23 15:01:25;;;;;;;1.63;1.53;;;9.00;99.90;10.00;101808.00;;;;5046968;28;20187;-69
2024/01/23 15:03:51;;;;;;;2.57;1.80;;;8.90;99.90;10.30;101756.00;;;;5041351;28;20182;-69
2024/01/23 15:06:18;;;;;;;4.17;1.30;;;8.90;99.90;10.40;101795.00;;;;5043549;28;20191;-68
2024/01/23 15:08:44;;;;;;;9.67;2.07;;;8.90;99.90;10.30;101794.00;;;;5050501;28;20689;-68
2024/01/23 15:11:10;;;;;;;7.50;2.30;;;8.90;99.90;10.40;101795.00;;;;5058578;28;20261;-69
2024/01/23 15:13:36;;;;;;;2.40;0.80;;;9.00;99.90;10.10;101753.00;;;;5046801;28;20714;-69
2024/01/23 15:16:02;;;;;;;8.97;4.13;;;8.90;99.90;10.30;101775.00;;;;5035229;28;20245;-69
2024/01/23 15:18:28;;;;;;;0.70;0.70;;;9.00;99.90;10.80;101771.00;;;;5049756;28;20195;-69
2024/01/23 15:20:54;;;;;;;4.23;2.47;;;9.10;99.90;10.30;101753.00;;;;5026047;28;20663;-70
2024/01/23 15:23:20;;;;;;;1.10;1.00;;;9.00;99.90;10.40;101696.00;;;;5036606;28;20198;-69
2024/01/23 15:25:49;;;;;;;4.03;2.10;;;9.00;99.90;10.20;101741.00;;;;5047794;28;20460;-69
2024/01/23 15:28:15;;;;;;;0.70;0.70;;;9.00;99.90;10.80;101732.00;;;;5041770;28;20276;-69
2024/01/23 15:30:47;;;;;;;3.33;1.10;;;9.10;99.90;10.50;101722.00;;;;5055560;28;20601;-68
2024/01/23 15:33:16;;;;;;;8.13;2.90;;;9.10;99.90;10.20;101723.00;;;;5044165;28;20213;-69
2024/01/23 15:35:41;;;;;;;0.60;0.60;;;9.00;99.90;10.50;101712.00;;;;5055486;28;20212;-68
2024/01/23 15:38:10;;;;;;;5.40;0.93;;;9.00;99.90;10.20;101718.00;;;;5045191;28;20647;-68
2024/01/23 15:40:36;;;;;;;4.90;2.27;;;9.00;99.90;10.70;101703.00;;;;5050522;28;20250;-68
2024/01/23 15:43:03;;;;;;;4.60;1.80;;;9.10;99.90;10.80;101712.00;;;;5053991;28;20189;-68
2024/01/23 15:45:30;;;;;;;6.30;2.00;;;9.10;99.90;10.40;101696.00;;;;5039505;28;20537;-68
2024/01/23 15:47:56;;;;;;;4.17;1.77;;;9.10;99.90;10.30;101685.00;;;;5037545;28;20279;-68
2024/01/23 15:50:24;;;;;;;0.60;0.60;;;9.00;99.90;10.60;101673.00;;;;5052314;28;20194;-68
2024/01/23 15:52:51;;;;;;;6.13;1.37;;;9.10;99.90;10.10;101666.00;;;;5054874;28;20204;-68
2024/01/23 15:55:19;;;;;;;2.63;1.33;;;8.90;99.90;10.20;101664.00;;;;5053751;28;20179;-69
2024/01/23 15:57:46;;;;;;;6.57;2.23;;;8.90;99.90;10.20;101669.00;;;;5053643;28;20211;-69
2024/01/23 16:00:13;;;;;;;1.13;0.80;;;8.90;99.90;10.40;101662.00;;;;5054472;28;20232;-70
2024/01/23 16:02:44;;;;;;;3.17;2.33;;;9.00;99.90;10.40;101664.00;;;;5052997;28;20210;-70
2024/01/23 16:05:13;;;;;;;4.63;1.33;;;8.90;99.90;10.30;101667.00;;;;5047095;28;20193;-70
2024/01/23 16:07:39;;;;;;;1.93;1.07;;;8.90;99.90;10.20;101682.00;;;;5045208;28;20197;-70
2024/01/23 16:10:07;;;;;;;4.83;1.27;;;8.90;99.90;10.20;101674.00;;;;5038594;28;20185;-70
2024/01/23 16:12:33;;;;;;;4.80;2.00;;;8.90;99.90;10.00;101660.00;;;;5029476;28;20212;-70
2024/01/23 16:14:59;;;;;;;2.90;1.50;;;8.80;99.90;10.10;101684.00;;;;5031222;28;20189;-69
2024/01/23 16:17:25;;;;;;;0.53;0.53;;;8.80;99.90;10.30;101687.00;;;;5056894;28;20242;-70
2024/01/23 16:19:51;;;;;;;0.60;0.60;;;8.80;99.90;11.40;101691.00;;;;5041378;28;20265;-71
2024/01/23 16:22:17;;;;;;;1.57;1.13;;;9.10;99.90;10.30;101684.00;;;;5053720;28;20268;-70
2024/01/23 16:24:47;;;;;;;4.13;1.60;;;9.00;99.90;10.30;101664.00;;;;5054676;28;20241;-71
2024/01/23 16:27:16;;;;;;;1.17;1.07;;;9.00;99.90;10.50;101674.00;;;;5066012;28;20730;-72
2024/01/23 16:29:42;;;;;;;3.93;2.53;;;8.90;99.90;10.40;101600.00;;;;5036952;28;20279;-72
2024/01/23 16:32:07;;;;;;;3.00;2.80;;;8.90;99.90;10.20;101602.00;;;;5049773;28;20740;-71
2024/01/23 16:34:36;;;;;;;1.93;0.90;;;8.90;99.90;10.30;101649.00;;;;5052038;28;20184;-72
2024/01/23 16:37:05;;;;;;;0.60;0.60;;;9.00;99.90;10.70;101656.00;;;;5034561;28;20197;-71
2024/01/23 16:39:31;;;;;;;1.27;1.20;;;9.10;99.90;10.50;101625.00;;;;5049711;28;20661;-71
2024/01/23 16:41:57;;;;;;;1.37;1.27;;;9.00;99.90;11.00;101640.00;;;;5044913;28;20280;-71
2024/01/23 16:44:26;;;;;;;2.03;1.80;;;9.20;99.90;10.40;101631.00;;;;5031961;28;20193;-71
2024/01/23 16:46:55;;;;;;;10.13;4.83;;;9.10;99.90;10.70;101651.00;;;;5039117;28;20275;-71
2024/01/23 16:49:20;;;;;;;2.30;0.73;;;9.20;99.90;10.70;101628.00;;;;5061337;28;20208;-73
2024/01/23 16:51:46;;;;;;;0.40;0.40;;;9.20;99.90;11.20;101675.00;;;;5042667;28;20198;-71
2024/01/23 16:54:16;;;;;;;1.03;0.90;;;9.30;99.90;11.70;101647.00;;;;5047898;28;20186;-72
2024/01/23 16:56:42;;;;;;;7.53;1.53;;;9.40;99.90;10.80;101584.00;;;;5047725;28;20220;-75
2024/01/23 16:59:08;;;;;;;6.63;1.93;;;9.40;99.90;10.50;101601.00;;;;5050708;28;20680;-71
2024/01/23 17:01:34;;;;;;;2.33;1.30;;;9.30;99.90;10.70;101589.00;;;;5046864;28;20197;-72
2024/01/23 17:04:00;;;;;;;0.80;0.80;;;9.30;99.90;10.70;101606.00;;;;5047506;28;20675;-70
2024/01/23 17:06:26;;;;;;;3.60;2.07;;;9.30;99.90;10.70;101595.00;;;;5044732;28;20190;-72
2024/01/23 17:08:51;;;;;;;1.47;0.80;;;9.40;99.90;11.00;101578.00;;;;5036091;28;20181;-70
2024/01/23 17:11:23;;;;;;;1.43;1.03;;;9.40;99.90;11.40;101614.00;;;;5032555;28;20186;-74
2024/01/23 17:13:49;;;;;;;1.53;1.53;;;9.60;99.90;12.30;101577.00;;;;5036295;28;20235;-68
2024/01/23 17:16:15;;;;;;;4.70;1.43;;;9.80;99.90;12.00;101615.00;;;;5054232;28;20650;-72
2024/01/23 17:18:41;;;;;;;1.07;0.97;;;10.00;99.90;11.50;101585.00;;;;5051414;28;20213;-71
2024/01/23 17:21:18;;;;;;;5.80;1.53;;;9.70;99.90;10.60;101534.00;;;;5052359;28;20637;-73
2024/01/23 17:24:26;;;;;;;3.20;2.97;;;9.60;99.90;11.10;101613.00;;;;5027982;28;20186;-72
2024/01/23 17:27:03;;;;;;;1.90;1.13;;;9.60;99.90;11.40;101530.00;;;;5024008;28;20191;-72
2024/01/23 17:29:51;;;;;;;0.40;0.40;;;9.70;99.90;11.70;101538.00;;;;5034116;28;20197;-72
2024/01/23 17:32:28;;;;;;;6.17;3.80;;;9.80;99.90;11.00;101590.00;;;;5050480;28;20237;-72
2024/01/23 17:35:18;;;;;;;1.00;1.00;;;9.70;99.90;11.20;101582.00;;;;5065951;28;20268;-72
2024/01/23 17:37:47;;;;;;;0.50;0.50;;;9.70;99.90;11.80;101591.00;;;;5050126;28;20185;-72
2024/01/23 17:40:21;;;;;;;1.20;1.10;;;9.80;99.90;12.00;101563.00;;;;5052281;28;20682;-72
2024/01/23 17:43:11;;;;;;;0.97;0.97;;;10.00;99.90;11.80;101565.00;;;;5050443;28;20652;-72
2024/01/23 17:45:46;;;;;;;0.90;0.90;;;9.90;99.90;11.80;101552.00;;;;5050602;28;20182;-72
2024/01/23 17:48:12;;;;;;;1.97;1.40;;;10.00;99.90;11.70;101529.00;;;;5051813;28;20214;-72
2024/01/23 17:50:48;;;;;;;5.23;1.00;;;10.00;99.90;11.60;101538.00;;;;5051684;28;20264;-73
2024/01/23 17:53:14;;;;;;;0.80;0.80;;;10.00;99.90;11.50;101514.00;;;;5050313;28;20210;-72
2024/01/23 17:56:07;;;;;;;1.77;1.43;;;10.00;99.90;11.40;101508.00;;;;5026656;28;20206;-73
2024/01/23 17:59:02;;;;;;;0.57;0.57;;;10.00;99.90;11.70;101513.00;;;;5045815;28;20286;-72
2024/01/23 18:01:31;;;;;;;0.50;0.50;;;10.00;99.90;12.00;101529.00;;;;5008095;28;20207;-72
2024/01/23 18:04:03;;;;;;;0.53;0.53;;;10.10;99.90;12.50;101503.00;;;;5049767;28;20184;-72
2024/01/23 18:07:10;;;;;;;0.53;0.53;;;10.30;99.90;12.50;101537.00;;;;5044972;28;20206;-72
2024/01/23 18:10:09;;;;;;;3.20;0.90;;;10.40;99.90;12.50;101543.00;;;;5049108;28;20643;-72
2024/01/23 18:12:58;;;;;;;0.77;0.77;;;10.50;99.90;13.20;101529.00;;;;5035356;28;20244;-72
2024/01/23 18:15:46;;;;;;;1.70;1.60;;;10.80;99.90;12.80;101507.00;;;;5026436;28;20208;-72
2024/01/23 18:18:22;;;;;;;3.43;0.90;;;10.90;99.90;12.80;101538.00;;;;5033218;28;20204;-72
2024/01/23 18:21:05;;;;;;;1.50;1.07;;;10.90;99.90;12.80;101502.00;;;;5034938;28;20205;-72
2024/01/23 18:23:50;;;;;;;0.43;0.43;;;10.90;99.90;13.00;101519.00;;;;5042520;28;20192;-72
2024/01/23 18:26:44;;;;;;;1.00;0.97;;;10.80;99.90;13.40;101496.00;;;;5046279;28;20215;-72
2024/01/23 18:29:16;;;;;;;1.43;1.33;;;11.00;99.90;12.80;101497.00;;;;5051900;28;20245;-72
2024/01/23 18:31:54;;;;;;;0.60;0.60;;;11.00;99.90;12.80;101499.00;;;;5045553;28;20214;-72
2024/01/23 18:34:51;;;;;;;0.67;0.67;;;11.00;99.90;13.10;101507.00;;;;5043207;28;20186;-72
2024/01/23 18:37:20;;;;;;;0.60;0.60;;;11.00;99.90;13.60;101509.00;;;;5047768;28;20192;-72
2024/01/23 18:39:52;;;;;;;0.60;0.60;;;11.20;99.90;13.50;101502.00;;;;5051109;28;20524;-72
2024/01/23 18:42:22;;;;;;;1.13;1.10;;;11.30;99.90;13.40;101474.00;;;;5052569;28;20196;-73
2024/01/23 18:44:53;;;;;;;6.50;1.57;;;11.40;99.90;13.30;101502.00;;;;5051759;28;20215;-73
2024/01/23 18:47:30;;;;;;;1.10;1.10;;;11.20;99.90;12.90;101494.00;;;;5051241;28;20198;-72
2024/01/23 18:50:01;;;;;;;1.13;1.13;;;11.10;99.90;12.50;101493.00;;;;5049905;28;20186;-72